createdAt,value
2023-03-30T00:01:41.854Z,11.64
2023-03-30T00:04:11.519Z,11.50
2023-03-30T00:06:39.233Z,11.47
2023-03-30T00:09:06.284Z,11.56
2023-03-30T00:11:34.161Z,11.54
2023-03-30T00:14:01.485Z,11.58
2023-03-30T00:16:27.939Z,11.47
2023-03-30T00:18:54.375Z,11.47
2023-03-30T00:21:21.244Z,11.58
2023-03-30T00:23:48.232Z,11.63
2023-03-30T00:26:15.202Z,11.59
2023-03-30T00:28:42.188Z,11.44
2023-03-30T00:31:10.712Z,11.55
2023-03-30T00:33:45.454Z,11.46
2023-03-30T00:36:13.721Z,11.33
2023-03-30T00:38:40.592Z,11.26
2023-03-30T00:41:07.691Z,11.28
2023-03-30T00:43:34.752Z,11.37
2023-03-30T00:46:01.549Z,11.36
2023-03-30T00:48:34.465Z,11.26
2023-03-30T00:51:09.446Z,11.21
2023-03-30T00:53:38.656Z,11.22
2023-03-30T00:56:10.122Z,11.30
2023-03-30T00:58:38.693Z,11.20
2023-03-30T01:01:10.290Z,10.98
2023-03-30T01:03:43.352Z,10.93
2023-03-30T01:06:10.894Z,10.89
2023-03-30T01:08:38.407Z,10.84
2023-03-30T01:11:06.885Z,10.74
2023-03-30T01:13:39.858Z,10.67
2023-03-30T01:16:15.573Z,10.76
2023-03-30T01:18:55.554Z,10.84
2023-03-30T01:21:34.113Z,10.83
2023-03-30T01:24:27.576Z,10.82
2023-03-30T01:27:21.944Z,10.85
2023-03-30T01:30:04.257Z,11.00
2023-03-30T01:32:39.631Z,11.03
2023-03-30T01:35:28.258Z,10.99
2023-03-30T01:38:32.468Z,10.98
2023-03-30T01:41:11.521Z,10.87
2023-03-30T01:43:57.799Z,10.78
2023-03-30T01:46:31.523Z,10.82
2023-03-30T01:49:05.820Z,10.87
2023-03-30T01:51:48.824Z,10.82
2023-03-30T01:54:31.412Z,10.73
2023-03-30T01:57:06.673Z,10.73
2023-03-30T01:59:48.603Z,10.82
2023-03-30T02:02:17.495Z,10.84
2023-03-30T02:04:45.719Z,10.87
2023-03-30T02:07:20.201Z,10.78
2023-03-30T02:09:50.847Z,10.72
2023-03-30T02:12:19.420Z,10.72
2023-03-30T02:14:49.222Z,10.63
2023-03-30T02:17:20.081Z,10.61
2023-03-30T02:19:46.698Z,10.64
2023-03-30T02:22:15.508Z,10.66
2023-03-30T02:24:44.777Z,10.73
2023-03-30T02:27:11.642Z,10.61
2023-03-30T02:29:43.213Z,10.53
2023-03-30T02:32:23.134Z,10.60
2023-03-30T02:35:09.286Z,10.52
2023-03-30T02:37:38.493Z,10.52
2023-03-30T02:40:32.095Z,10.51
2023-03-30T02:43:17.047Z,10.45
2023-03-30T02:46:21.539Z,10.56
2023-03-30T02:49:03.270Z,10.50
2023-03-30T02:51:42.142Z,10.50
2023-03-30T02:54:21.198Z,10.51
2023-03-30T02:57:03.937Z,10.48
2023-03-30T02:59:39.047Z,10.52
2023-03-30T03:02:13.870Z,10.48
2023-03-30T03:04:43.563Z,10.37
2023-03-30T03:07:14.242Z,10.33
2023-03-30T03:09:41.144Z,10.26
2023-03-30T03:12:07.898Z,10.23
2023-03-30T03:14:34.283Z,10.27
2023-03-30T03:17:00.802Z,10.29
2023-03-30T03:19:27.226Z,10.17
2023-03-30T03:21:53.622Z,10.07
2023-03-30T03:24:20.054Z,10.05
2023-03-30T03:26:46.438Z,10.09
2023-03-30T03:29:12.986Z,10.11
2023-03-30T03:31:39.618Z,10.16
2023-03-30T03:34:06.765Z,10.11
2023-03-30T03:36:33.144Z,10.12
2023-03-30T03:38:59.553Z,10.09
2023-03-30T03:41:26.337Z,10.06
2023-03-30T03:43:52.813Z,10.08
2023-03-30T03:46:19.242Z,10.10
2023-03-30T03:48:46.181Z,10.23
2023-03-30T03:51:12.688Z,10.38
2023-03-30T03:53:39.090Z,10.44
2023-03-30T03:56:05.745Z,10.47
2023-03-30T03:58:32.132Z,10.46
2023-03-30T04:01:02.988Z,10.56
2023-03-30T04:03:29.955Z,10.57
2023-03-30T04:06:00.747Z,10.55
2023-03-30T04:08:28.544Z,10.53
2023-03-30T04:10:55.052Z,10.55
2023-03-30T04:13:21.561Z,10.59
2023-03-30T04:15:47.947Z,10.59
2023-03-30T04:18:15.542Z,10.62
2023-03-30T04:20:42.051Z,10.60
2023-03-30T04:23:09.747Z,10.57
2023-03-30T04:25:36.266Z,10.55
2023-03-30T04:28:04.943Z,10.61
2023-03-30T04:30:31.519Z,10.66
2023-03-30T04:33:04.643Z,10.69
2023-03-30T04:35:34.581Z,10.66
2023-03-30T04:38:02.215Z,10.62
2023-03-30T04:40:29.378Z,10.61
2023-03-30T04:43:02.052Z,10.65
2023-03-30T04:45:29.701Z,10.65
2023-03-30T04:47:56.361Z,10.71
2023-03-30T04:50:22.835Z,10.66
2023-03-30T04:52:49.210Z,10.62
2023-03-30T04:55:15.621Z,10.60
2023-03-30T04:57:42.081Z,10.58
2023-03-30T05:00:09.328Z,10.58
2023-03-30T05:02:36.265Z,10.52
2023-03-30T05:05:02.869Z,10.51
2023-03-30T05:07:29.316Z,10.55
2023-03-30T05:09:55.739Z,10.58
2023-03-30T05:12:22.141Z,10.67
2023-03-30T05:14:48.580Z,10.78
2023-03-30T05:17:15.434Z,10.80
2023-03-30T05:19:42.020Z,10.73
2023-03-30T05:22:08.508Z,10.72
2023-03-30T05:24:34.966Z,10.68
2023-03-30T05:27:02.285Z,10.66
2023-03-30T05:29:28.719Z,10.66
2023-03-30T05:31:55.180Z,10.65
2023-03-30T05:34:21.576Z,10.67
2023-03-30T05:36:47.979Z,10.67
2023-03-30T05:39:14.517Z,10.66
2023-03-30T05:41:41.104Z,10.62
2023-03-30T05:44:07.747Z,10.67
2023-03-30T05:46:34.206Z,10.70
2023-03-30T05:49:01.089Z,10.79
2023-03-30T05:51:27.564Z,10.79
2023-03-30T05:53:53.929Z,10.76
2023-03-30T05:56:20.474Z,10.85
2023-03-30T05:58:47.019Z,10.89
2023-03-30T06:01:13.480Z,10.91
2023-03-30T06:03:40.304Z,10.99
2023-03-30T06:06:07.954Z,11.00
2023-03-30T06:08:34.425Z,11.00
2023-03-30T06:11:01.802Z,11.07
2023-03-30T06:13:28.625Z,11.14
2023-03-30T06:15:55.131Z,11.08
2023-03-30T06:18:21.586Z,11.03
2023-03-30T06:20:48.918Z,11.08
2023-03-30T06:23:16.415Z,11.10
2023-03-30T06:25:46.873Z,11.08
2023-03-30T06:28:13.268Z,11.08
2023-03-30T06:30:39.716Z,11.15
2023-03-30T06:33:06.226Z,11.23
2023-03-30T06:35:32.880Z,11.30
2023-03-30T06:37:59.339Z,11.29
2023-03-30T06:40:25.741Z,11.28
2023-03-30T06:42:52.154Z,11.29
2023-03-30T06:45:18.669Z,11.32
2023-03-30T06:47:46.180Z,11.37
2023-03-30T06:50:13.372Z,11.34
2023-03-30T06:52:39.873Z,11.26
2023-03-30T06:55:06.632Z,11.32
2023-03-30T06:57:33.130Z,11.38
2023-03-30T06:59:59.592Z,11.42
2023-03-30T07:02:26.509Z,11.45
2023-03-30T07:04:53.267Z,11.48
2023-03-30T07:07:20.913Z,11.38
2023-03-30T07:09:47.327Z,11.41
2023-03-30T07:12:13.765Z,11.56
2023-03-30T07:14:40.211Z,11.52
2023-03-30T07:17:07.884Z,11.41
2023-03-30T07:19:34.594Z,11.40
2023-03-30T07:22:01.284Z,11.44
2023-03-30T07:24:29.878Z,11.49
2023-03-30T07:26:56.444Z,11.64
2023-03-30T07:29:23.243Z,11.54
2023-03-30T07:31:49.656Z,11.52
2023-03-30T07:34:17.100Z,11.67
2023-03-30T07:36:43.517Z,11.85
2023-03-30T07:39:11.109Z,11.81
2023-03-30T07:41:37.617Z,11.85
2023-03-30T07:44:04.148Z,11.87
2023-03-30T07:46:31.125Z,11.71
2023-03-30T07:48:57.954Z,11.69
2023-03-30T07:51:25.918Z,11.67
2023-03-30T07:53:54.456Z,11.66
2023-03-30T07:56:21.066Z,11.61
2023-03-30T07:58:47.461Z,11.67
2023-03-30T08:01:13.986Z,11.71
2023-03-30T08:03:40.506Z,11.73
2023-03-30T08:06:07.409Z,11.65
2023-03-30T08:08:34.486Z,11.61
2023-03-30T08:11:01.269Z,11.60
2023-03-30T08:13:29.756Z,11.54
2023-03-30T08:15:56.328Z,11.47
2023-03-30T08:18:22.749Z,11.36
2023-03-30T08:20:53.748Z,11.39
2023-03-30T08:23:21.948Z,11.31
2023-03-30T08:25:52.447Z,11.27
2023-03-30T08:28:21.168Z,11.33
2023-03-30T08:30:48.032Z,11.32
2023-03-30T08:33:15.842Z,11.32
2023-03-30T08:35:49.418Z,11.35
2023-03-30T08:38:17.229Z,11.38
2023-03-30T08:40:48.439Z,11.35
2023-03-30T08:43:36.745Z,11.31
2023-03-30T08:46:04.022Z,11.35
2023-03-30T08:48:37.743Z,11.34
2023-03-30T08:51:24.709Z,11.36
2023-03-30T08:53:56.517Z,11.40
2023-03-30T08:56:27.613Z,11.35
2023-03-30T08:59:03.010Z,11.40
2023-03-30T09:01:53.884Z,11.60
2023-03-30T09:04:27.797Z,11.68
2023-03-30T09:07:12.193Z,11.63
2023-03-30T09:09:47.235Z,11.60
2023-03-30T09:12:34.313Z,11.55
2023-03-30T09:15:06.368Z,11.60
2023-03-30T09:17:32.780Z,11.66
2023-03-30T09:20:10.191Z,11.59
2023-03-30T09:22:42.423Z,11.66
2023-03-30T09:25:15.341Z,11.78
2023-03-30T09:27:55.548Z,11.87
2023-03-30T09:30:30.536Z,12.01
2023-03-30T09:33:00.884Z,12.08
2023-03-30T09:35:40.704Z,12.13
2023-03-30T09:38:12.937Z,12.10
2023-03-30T09:41:09.572Z,11.95
2023-03-30T09:43:44.216Z,11.98
2023-03-30T09:46:11.234Z,12.03
2023-03-30T09:48:48.668Z,12.23
2023-03-30T09:51:21.472Z,12.29
2023-03-30T09:53:51.288Z,12.32
2023-03-30T09:56:46.920Z,12.30
2023-03-30T09:59:35.132Z,12.18
2023-03-30T10:02:19.214Z,12.25
2023-03-30T10:05:04.340Z,12.51
2023-03-30T10:07:39.579Z,12.65
2023-03-30T10:10:16.887Z,12.66
2023-03-30T10:12:44.709Z,12.71
2023-03-30T10:15:16.887Z,12.74
2023-03-30T10:17:46.652Z,12.79
2023-03-30T10:20:15.816Z,12.80
2023-03-30T10:22:53.644Z,12.76
2023-03-30T10:25:27.300Z,12.90
2023-03-30T10:27:57.257Z,12.98
2023-03-30T10:30:27.118Z,12.96
2023-03-30T10:32:59.275Z,12.95
2023-03-30T10:35:31.787Z,13.04
2023-03-30T10:38:01.716Z,13.07
2023-03-30T10:40:41.036Z,13.21
2023-03-30T10:43:17.650Z,13.35
2023-03-30T10:45:47.853Z,13.34
2023-03-30T10:48:44.238Z,13.47
2023-03-30T10:51:52.570Z,13.61
2023-03-30T10:54:30.691Z,13.83
2023-03-30T10:57:11.572Z,13.95
2023-03-30T10:59:59.988Z,14.10
2023-03-30T11:02:41.739Z,14.19
2023-03-30T11:05:18.186Z,14.23
2023-03-30T11:07:54.840Z,14.58
2023-03-30T11:10:31.469Z,14.78
2023-03-30T11:13:05.807Z,14.66
2023-03-30T11:15:50.881Z,14.77
2023-03-30T11:18:21.854Z,15.09
2023-03-30T11:20:58.851Z,15.20
2023-03-30T11:23:50.724Z,15.14
2023-03-30T11:26:29.713Z,15.26
2023-03-30T11:28:59.034Z,15.38
2023-03-30T11:31:40.471Z,15.47
2023-03-30T11:34:36.433Z,15.38
2023-03-30T11:37:13.777Z,15.42
2023-03-30T11:39:48.988Z,15.67
2023-03-30T11:42:29.934Z,15.82
2023-03-30T11:44:56.808Z,15.88
2023-03-30T11:47:41.562Z,15.92
2023-03-30T11:50:23.799Z,15.74
2023-03-30T11:52:59.239Z,15.91
2023-03-30T11:55:51.004Z,16.33
2023-03-30T11:58:17.382Z,16.27
2023-03-30T12:00:54.655Z,16.30
2023-03-30T12:03:42.783Z,16.18
2023-03-30T12:06:11.080Z,16.19
2023-03-30T12:08:52.677Z,15.91
2023-03-30T12:11:52.397Z,15.81
2023-03-30T12:14:36.279Z,15.62
2023-03-30T12:17:12.186Z,15.68
2023-03-30T12:19:55.429Z,15.79
2023-03-30T12:22:36.054Z,15.77
2023-03-30T12:25:34.798Z,15.64
2023-03-30T12:28:07.244Z,15.78
2023-03-30T12:30:55.723Z,15.90
2023-03-30T12:33:36.878Z,15.71
2023-03-30T12:36:28.179Z,15.58
2023-03-30T12:38:57.645Z,15.72
2023-03-30T12:41:26.650Z,15.77
2023-03-30T12:44:14.912Z,15.84
2023-03-30T12:46:52.687Z,15.87
2023-03-30T12:49:45.047Z,15.89
2023-03-30T12:52:25.035Z,15.90
2023-03-30T12:55:02.555Z,15.80
2023-03-30T12:57:43.000Z,15.77
2023-03-30T13:00:52.804Z,15.86
2023-03-30T13:03:29.413Z,15.85
2023-03-30T13:05:59.865Z,15.74
2023-03-30T13:08:36.933Z,15.84
2023-03-30T13:11:12.924Z,15.93
2023-03-30T13:13:56.228Z,15.99
2023-03-30T13:16:50.248Z,15.91
2023-03-30T13:19:38.069Z,15.95
2023-03-30T13:22:10.632Z,15.87
2023-03-30T13:24:44.368Z,15.86
2023-03-30T13:27:13.686Z,15.97
2023-03-30T13:29:52.536Z,15.90
2023-03-30T13:32:22.019Z,15.95
2023-03-30T13:35:07.448Z,16.02
2023-03-30T13:37:52.336Z,15.94
2023-03-30T13:40:43.735Z,15.83
2023-03-30T13:43:58.135Z,15.68
2023-03-30T13:46:40.920Z,15.52
2023-03-30T13:49:39.988Z,15.50
2023-03-30T13:52:14.147Z,15.49
2023-03-30T13:54:41.647Z,15.52
2023-03-30T13:57:09.547Z,15.59
2023-03-30T13:59:41.554Z,15.68
2023-03-30T14:02:14.623Z,15.68
2023-03-30T14:04:41.055Z,15.78
2023-03-30T14:07:25.625Z,15.92
2023-03-30T14:10:06.296Z,15.91
2023-03-30T14:12:34.449Z,15.88
2023-03-30T14:15:02.096Z,15.89
2023-03-30T14:17:28.796Z,15.92
2023-03-30T14:20:16.702Z,15.96
2023-03-30T14:22:47.337Z,16.01
2023-03-30T14:25:23.148Z,16.09
2023-03-30T14:27:49.949Z,16.16
2023-03-30T14:30:22.558Z,16.17
2023-03-30T14:33:09.062Z,16.12
2023-03-30T14:35:42.191Z,16.10
2023-03-30T14:38:17.388Z,16.04
2023-03-30T14:40:45.909Z,16.21
2023-03-30T14:43:40.680Z,16.33
2023-03-30T14:46:11.748Z,16.28
2023-03-30T14:48:42.522Z,16.27
2023-03-30T14:51:37.740Z,16.35
2023-03-30T14:54:05.901Z,16.37
2023-03-30T14:56:32.890Z,16.40
2023-03-30T14:59:00.262Z,16.37
2023-03-30T15:01:31.643Z,16.45
2023-03-30T15:04:14.756Z,16.46
2023-03-30T15:06:42.098Z,16.44
2023-03-30T15:09:16.362Z,16.47
2023-03-30T15:11:48.005Z,16.45
2023-03-30T15:14:19.962Z,16.45
2023-03-30T15:16:53.337Z,16.44
2023-03-30T15:19:31.404Z,16.43
2023-03-30T15:22:03.020Z,16.40
2023-03-30T15:24:34.286Z,16.41
2023-03-30T15:27:03.912Z,16.41
2023-03-30T15:29:31.941Z,16.41
2023-03-30T15:32:05.402Z,16.43
2023-03-30T15:34:32.012Z,16.41
2023-03-30T15:36:58.947Z,16.40
2023-03-30T15:39:33.867Z,16.38
2023-03-30T15:42:06.033Z,16.40
2023-03-30T15:44:38.360Z,16.42
2023-03-30T15:47:12.303Z,16.42
2023-03-30T15:49:45.973Z,16.42
2023-03-30T15:52:18.854Z,16.44
2023-03-30T15:54:52.776Z,16.43
2023-03-30T15:57:29.678Z,16.41
2023-03-30T16:00:01.941Z,16.42
2023-03-30T16:02:31.729Z,16.44
2023-03-30T16:05:00.673Z,16.42
2023-03-30T16:07:28.437Z,16.41
2023-03-30T16:09:54.998Z,16.37
2023-03-30T16:12:27.566Z,16.36
2023-03-30T16:14:54.243Z,16.35
2023-03-30T16:17:21.171Z,16.35
2023-03-30T16:19:47.766Z,16.33
2023-03-30T16:22:15.893Z,16.23
2023-03-30T16:24:53.981Z,16.16
2023-03-30T16:27:20.628Z,16.09
2023-03-30T16:29:50.680Z,16.06
2023-03-30T16:32:21.225Z,16.06
2023-03-30T16:34:48.361Z,16.03
2023-03-30T16:37:15.202Z,15.99
2023-03-30T16:39:42.593Z,15.93
2023-03-30T16:42:09.012Z,15.88
2023-03-30T16:44:36.358Z,15.83
2023-03-30T16:47:02.914Z,15.77
2023-03-30T16:49:29.352Z,15.68
2023-03-30T16:51:58.217Z,15.62
2023-03-30T16:54:32.036Z,15.51
2023-03-30T16:56:59.466Z,15.46
2023-03-30T16:59:29.115Z,15.38
2023-03-30T17:01:56.067Z,15.30
2023-03-30T17:04:22.639Z,15.26
2023-03-30T17:06:49.472Z,15.18
2023-03-30T17:09:18.557Z,15.12
2023-03-30T17:11:46.752Z,15.06
2023-03-30T17:14:13.944Z,15.00
2023-03-30T17:16:41.392Z,14.95
2023-03-30T17:19:13.577Z,14.90
2023-03-30T17:21:48.814Z,14.82
2023-03-30T17:24:25.101Z,14.79
2023-03-30T17:26:54.164Z,14.73
2023-03-30T17:29:25.466Z,14.67
2023-03-30T17:31:55.768Z,14.68
2023-03-30T17:34:36.461Z,14.65
2023-03-30T17:37:04.007Z,14.62
2023-03-30T17:39:30.978Z,14.60
2023-03-30T17:42:03.665Z,14.59
2023-03-30T17:44:52.876Z,14.55
2023-03-30T17:47:28.905Z,14.51
2023-03-30T17:49:55.402Z,14.48
2023-03-30T17:52:21.966Z,14.46
2023-03-30T17:54:48.362Z,14.46
2023-03-30T17:57:14.884Z,14.52
2023-03-30T17:59:41.341Z,14.53
2023-03-30T18:02:07.975Z,14.54
2023-03-30T18:04:35.188Z,14.52
2023-03-30T18:07:02.941Z,14.51
2023-03-30T18:09:29.386Z,14.51
2023-03-30T18:11:55.821Z,14.53
2023-03-30T18:14:22.284Z,14.49
2023-03-30T18:16:50.344Z,14.43
2023-03-30T18:19:16.878Z,14.38
2023-03-30T18:21:43.336Z,14.32
2023-03-30T18:24:09.741Z,14.32
2023-03-30T18:26:36.348Z,14.29
2023-03-30T18:29:03.230Z,14.30
2023-03-30T18:31:29.661Z,14.31
2023-03-30T18:33:56.102Z,14.31
2023-03-30T18:36:22.696Z,14.32
2023-03-30T18:38:50.211Z,14.35
2023-03-30T18:41:16.697Z,14.37
2023-03-30T18:43:43.158Z,14.37
2023-03-30T18:46:12.410Z,14.38
2023-03-30T18:48:39.011Z,14.33
2023-03-30T18:51:05.660Z,14.30
2023-03-30T18:53:32.073Z,14.27
2023-03-30T18:56:01.879Z,14.25
2023-03-30T18:58:33.405Z,14.20
2023-03-30T19:01:00.342Z,14.19
2023-03-30T19:03:28.252Z,14.16
2023-03-30T19:05:54.735Z,14.13
2023-03-30T19:08:23.675Z,14.11
2023-03-30T19:10:52.261Z,14.08
2023-03-30T19:13:20.367Z,14.06
2023-03-30T19:15:48.302Z,14.06
2023-03-30T19:18:15.666Z,14.04
2023-03-30T19:20:42.166Z,14.03
2023-03-30T19:23:12.406Z,14.04
2023-03-30T19:25:39.797Z,14.03
2023-03-30T19:28:07.035Z,14.04
2023-03-30T19:30:37.475Z,14.10
2023-03-30T19:33:12.149Z,14.05
2023-03-30T19:35:43.392Z,14.01
2023-03-30T19:38:09.847Z,14.01
2023-03-30T19:40:38.073Z,14.06
2023-03-30T19:43:04.602Z,14.06
2023-03-30T19:45:31.723Z,14.11
2023-03-30T19:47:58.282Z,14.08
2023-03-30T19:50:25.004Z,14.05
2023-03-30T19:52:51.727Z,14.06
2023-03-30T19:55:19.293Z,14.06
2023-03-30T19:57:46.200Z,14.02
2023-03-30T20:00:15.880Z,14.01
2023-03-30T20:02:48.231Z,13.99
2023-03-30T20:05:15.852Z,13.98
2023-03-30T20:07:44.219Z,14.00
2023-03-30T20:10:13.408Z,14.00
2023-03-30T20:12:39.825Z,13.95
2023-03-30T20:15:08.138Z,13.99
2023-03-30T20:17:36.412Z,13.99
2023-03-30T20:20:08.707Z,13.94
2023-03-30T20:22:41.224Z,13.89
2023-03-30T20:25:10.378Z,13.84
2023-03-30T20:27:37.116Z,13.78
2023-03-30T20:30:05.932Z,13.77
2023-03-30T20:32:34.072Z,13.70
2023-03-30T20:35:00.621Z,13.69
2023-03-30T20:37:27.025Z,13.74
2023-03-30T20:39:53.425Z,13.73
2023-03-30T20:42:26.239Z,13.71
2023-03-30T20:44:53.446Z,13.68
2023-03-30T20:47:23.207Z,13.66
2023-03-30T20:49:49.750Z,13.67
2023-03-30T20:52:16.795Z,13.71
2023-03-30T20:54:44.414Z,13.72
2023-03-30T20:57:11.505Z,13.69
2023-03-30T20:59:39.324Z,13.67
2023-03-30T21:02:05.814Z,13.66
2023-03-30T21:04:36.430Z,13.63
2023-03-30T21:07:03.060Z,13.56
2023-03-30T21:09:29.638Z,13.52
2023-03-30T21:11:56.191Z,13.50
2023-03-30T21:14:24.058Z,13.46
2023-03-30T21:16:50.773Z,13.41
2023-03-30T21:19:17.243Z,13.33
2023-03-30T21:21:43.719Z,13.26
2023-03-30T21:24:11.201Z,13.24
2023-03-30T21:26:38.030Z,13.22
2023-03-30T21:29:05.016Z,13.19
2023-03-30T21:31:31.858Z,13.13
2023-03-30T21:33:58.517Z,13.08
2023-03-30T21:36:25.142Z,13.04
2023-03-30T21:38:51.671Z,13.00
2023-03-30T21:41:21.033Z,12.96
2023-03-30T21:43:48.130Z,12.88
2023-03-30T21:46:17.607Z,12.77
2023-03-30T21:48:45.854Z,12.77
2023-03-30T21:51:16.714Z,12.70
2023-03-30T21:53:48.151Z,12.67
2023-03-30T21:56:15.314Z,12.70
2023-03-30T21:58:41.893Z,12.63
2023-03-30T22:01:12.410Z,12.47
2023-03-30T22:03:41.217Z,12.29
2023-03-30T22:06:10.726Z,12.26
2023-03-30T22:08:37.217Z,12.34
2023-03-30T22:11:15.325Z,12.42
2023-03-30T22:13:41.829Z,12.40
2023-03-30T22:16:24.608Z,12.33
2023-03-30T22:18:51.782Z,12.39
2023-03-30T22:21:24.771Z,12.37
2023-03-30T22:23:53.017Z,12.29
2023-03-30T22:26:19.627Z,12.25
2023-03-30T22:28:46.674Z,12.12
2023-03-30T22:31:15.191Z,11.99
2023-03-30T22:33:42.205Z,11.91
2023-03-30T22:36:23.789Z,11.97
2023-03-30T22:38:51.701Z,11.97
2023-03-30T22:41:23.614Z,11.91
2023-03-30T22:43:51.883Z,11.88
2023-03-30T22:46:18.332Z,11.81
2023-03-30T22:48:45.208Z,11.76
2023-03-30T22:51:14.548Z,11.72
2023-03-30T22:53:41.175Z,11.73
2023-03-30T22:56:08.096Z,11.67
2023-03-30T22:58:35.945Z,11.62
2023-03-30T23:01:05.991Z,11.55
2023-03-30T23:03:33.046Z,11.42
2023-03-30T23:06:01.526Z,11.41
2023-03-30T23:08:31.423Z,11.51
2023-03-30T23:11:04.029Z,11.51
2023-03-30T23:13:31.595Z,11.38
2023-03-30T23:15:58.504Z,11.31
2023-03-30T23:18:25.222Z,11.30
2023-03-30T23:20:53.829Z,11.36
2023-03-30T23:23:20.902Z,11.41
2023-03-30T23:25:51.437Z,11.30
2023-03-30T23:28:18.388Z,11.25
2023-03-30T23:30:44.946Z,11.33
2023-03-30T23:33:12.065Z,11.33
2023-03-30T23:35:38.552Z,11.24
2023-03-30T23:38:04.977Z,11.24
2023-03-30T23:40:31.817Z,11.34
2023-03-30T23:42:58.222Z,11.35
2023-03-30T23:45:24.688Z,11.30
2023-03-30T23:47:51.394Z,11.41
2023-03-30T23:50:17.775Z,11.52
2023-03-30T23:52:44.182Z,11.56
2023-03-30T23:55:11.113Z,11.48
2023-03-30T23:57:37.524Z,11.50
